Time;durP1;ratioP1;P1;durP2;ratioP2;P2;SDS_P1;SDS_P2;PMS_P1;PMS_P2;Temp;Humidity;BMP_temperature;BMP_pressure;BME280_temperature;BME280_humidity;BME280_pressure;Samples;Min_cycle;Max_cycle;Signal;HPM_P1;HPM_P2
2022/03/22 00:00:39;;;;;;;42.75;25.52;;;;;;;1.19;51.11;101885.97;1778678;80;21030;-58
2022/03/22 00:03:07;;;;;;;43.48;25.77;;;;;;;1.10;51.19;101886.19;1757840;81;20927;-58
2022/03/22 00:05:37;;;;;;;49.20;26.47;;;;;;;0.94;51.22;101887.89;1767374;78;22743;-59
2022/03/22 00:08:04;;;;;;;43.25;25.75;;;;;;;0.72;51.31;101890.71;1789679;79;21081;-58
2022/03/22 00:10:30;;;;;;;40.00;24.07;;;;;;;0.55;51.42;101894.96;1759476;79;21012;-58
2022/03/22 00:12:57;;;;;;;43.13;26.33;;;;;;;0.44;51.49;101895.07;1802151;78;20974;-58
2022/03/22 00:15:24;;;;;;;44.75;24.05;;;;;;;0.40;51.58;101890.69;1791119;78;21033;-58
2022/03/22 00:17:51;;;;;;;33.18;21.97;;;;;;;0.38;51.69;101891.05;1799047;78;21148;-58
2022/03/22 00:20:17;;;;;;;43.07;23.93;;;;;;;0.40;51.83;101893.25;1792843;78;20883;-58
2022/03/22 00:22:44;;;;;;;46.13;24.77;;;;;;;0.40;51.80;101885.55;1788392;78;20934;-58
2022/03/22 00:25:12;;;;;;;56.15;26.75;;;;;;;0.33;51.83;101888.75;1781206;79;21625;-58
2022/03/22 00:27:52;;;;;;;41.90;23.80;;;;;;;0.28;51.84;101890.30;1770453;79;21025;-58
2022/03/22 00:30:22;;;;;;;48.65;25.95;;;;;;;0.30;51.97;101886.09;1752354;81;22115;-58
2022/03/22 00:32:53;;;;;;;43.48;24.95;;;;;;;0.38;52.05;101887.19;1765157;81;21562;-58
2022/03/22 00:35:26;;;;;;;52.10;26.50;;;;;;;0.40;52.03;101884.26;1788321;79;20983;-58
2022/03/22 00:37:56;;;;;;;51.53;28.02;;;;;;;0.32;52.01;101896.88;1799750;79;21000;-58
2022/03/22 00:40:25;;;;;;;62.00;29.98;;;;;;;0.19;52.07;101890.48;1782938;79;21037;-58
2022/03/22 00:42:56;;;;;;;88.15;33.45;;;;;;;0.15;52.17;101895.09;1765656;81;21195;-58
2022/03/22 00:45:29;;;;;;;76.47;33.50;;;;;;;0.07;52.24;101891.42;1793251;78;20996;-58
2022/03/22 00:47:57;;;;;;;56.33;27.75;;;;;;;0.02;52.42;101887.83;1811654;78;21063;-58
2022/03/22 00:50:28;;;;;;;62.85;30.17;;;;;;;0.03;52.41;101884.45;1784567;78;20978;-58
2022/03/22 00:52:58;;;;;;;63.98;30.50;;;;;;;0.09;52.48;101888.48;1771312;80;20965;-58
2022/03/22 00:55:27;;;;;;;59.13;28.30;;;;;;;0.08;52.48;101888.01;1743219;81;21470;-58
2022/03/22 00:57:55;;;;;;;53.13;26.65;;;;;;;-0.06;52.47;101881.59;1784135;79;21010;-58
2022/03/22 01:00:30;;;;;;;57.85;28.12;;;;;;;-0.15;52.54;101872.33;1767242;80;21036;-58
2022/03/22 01:02:59;;;;;;;70.20;31.82;;;;;;;-0.21;52.69;101876.86;1796644;78;20950;-58
2022/03/22 01:05:28;;;;;;;73.25;34.08;;;;;;;-0.28;52.75;101870.67;1801791;79;22466;-58
2022/03/22 01:07:59;;;;;;;64.15;30.48;;;;;;;-0.32;52.79;101867.95;1766532;79;21119;-58
2022/03/22 01:10:27;;;;;;;51.30;27.45;;;;;;;-0.36;52.87;101868.69;1780836;78;21013;-59
2022/03/22 01:12:54;;;;;;;50.05;27.15;;;;;;;-0.37;53.01;101865.22;1783380;79;20915;-58
2022/03/22 01:15:25;;;;;;;45.73;26.35;;;;;;;-0.37;53.04;101865.22;1771461;78;20997;-59
2022/03/22 01:17:55;;;;;;;54.15;28.62;;;;;;;-0.43;53.12;101870.17;1794392;78;21116;-58
2022/03/22 01:20:26;;;;;;;46.37;27.25;;;;;;;-0.53;53.12;101869.44;1779525;78;21124;-58
2022/03/22 01:22:54;;;;;;;51.95;28.67;;;;;;;-0.62;53.23;101863.56;1802188;79;20988;-59
2022/03/22 01:25:25;;;;;;;52.05;29.60;;;;;;;-0.69;53.31;101871.48;1788546;79;20942;-58
2022/03/22 01:27:53;;;;;;;60.63;27.58;;;;;;;-0.74;53.33;101871.73;1790563;79;21607;-58
2022/03/22 01:30:22;;;;;;;54.80;30.35;;;;;;;-0.79;53.43;101868.14;1781009;78;21061;-58
2022/03/22 01:32:55;;;;;;;51.68;28.32;;;;;;;-0.80;53.49;101870.67;1788707;78;21498;-59
2022/03/22 01:35:23;;;;;;;53.75;28.85;;;;;;;-0.85;53.55;101869.22;1783970;79;20950;-58
2022/03/22 01:37:53;;;;;;;54.73;28.38;;;;;;;-0.92;53.63;101871.14;1765579;79;21569;-58
2022/03/22 01:40:23;;;;;;;55.25;28.87;;;;;;;-1.03;53.65;101864.77;1781490;78;21032;-59
2022/03/22 01:42:50;;;;;;;51.58;25.10;;;;;;;-1.08;53.75;101867.58;1789650;78;21633;-58
2022/03/22 01:45:17;;;;;;;58.23;29.63;;;;;;;-1.11;53.91;101872.19;1762273;80;21473;-59
2022/03/22 01:47:46;;;;;;;69.32;30.50;;;;;;;-1.16;54.02;101869.45;1783382;79;20997;-58
2022/03/22 01:50:17;;;;;;;61.70;29.42;;;;;;;-1.30;54.01;101865.54;1762920;81;21043;-58
2022/03/22 01:52:44;;;;;;;53.85;26.95;;;;;;;-1.42;54.07;101867.67;1765345;79;20914;-58
2022/03/22 01:55:16;;;;;;;45.00;25.90;;;;;;;-1.52;54.19;101863.02;1773295;79;26489;-58
2022/03/22 01:57:43;;;;;;;46.83;25.02;;;;;;;-1.58;54.37;101861.98;1790086;78;21702;-59
2022/03/22 02:00:13;;;;;;;44.95;24.82;;;;;;;-1.52;54.46;101861.75;1778007;79;20986;-58
2022/03/22 02:08:14;;;;;;;;;;;;;;;-1.71;54.64;101861.09;1764650;80;21020;-57
2022/03/22 02:10:41;;;;;;;46.02;24.87;;;;;;;-1.75;54.94;101863.05;1741021;80;20775;-57
2022/03/22 02:13:08;;;;;;;45.28;23.15;;;;;;;-1.78;54.90;101861.66;1755552;81;21044;-58
2022/03/22 02:15:35;;;;;;;41.70;24.67;;;;;;;-1.75;55.01;101855.38;1739151;81;20966;-57
2022/03/22 02:18:02;;;;;;;38.27;22.73;;;;;;;-1.68;55.10;101863.77;1750604;81;21554;-57
2022/03/22 02:20:30;;;;;;;42.25;24.20;;;;;;;-1.68;55.11;101854.80;1764089;80;20970;-57
2022/03/22 02:23:07;;;;;;;40.67;22.98;;;;;;;-1.69;55.16;101854.31;1763167;80;21873;-57
2022/03/22 02:25:38;;;;;;;45.23;23.95;;;;;;;-1.71;55.22;101854.69;1761662;80;20996;-57
2022/03/22 02:28:05;;;;;;;35.98;21.05;;;;;;;-1.76;55.20;101854.92;1754230;80;20997;-57
2022/03/22 02:30:32;;;;;;;41.75;22.37;;;;;;;-1.78;55.44;101855.27;1766786;80;20950;-57
2022/03/22 02:33:01;;;;;;;36.58;22.02;;;;;;;-1.76;55.40;101847.62;1771001;79;21156;-58
2022/03/22 02:35:30;;;;;;;41.53;22.02;;;;;;;-1.78;55.48;101848.86;1761602;80;21115;-57
2022/03/22 02:37:58;;;;;;;41.68;22.17;;;;;;;-1.81;55.53;101847.47;1746530;80;21064;-57
2022/03/22 02:40:28;;;;;;;32.35;19.98;;;;;;;-1.87;55.56;101849.39;1737087;80;21002;-57
2022/03/22 02:42:57;;;;;;;34.95;21.20;;;;;;;-1.90;55.64;101853.53;1756706;81;21005;-57
2022/03/22 02:45:24;;;;;;;36.13;20.62;;;;;;;-1.94;55.64;101855.50;1763891;80;21044;-57
2022/03/22 02:47:58;;;;;;;38.17;20.05;;;;;;;-1.97;55.87;101850.27;1771521;80;21030;-57
2022/03/22 02:50:28;;;;;;;36.00;21.85;;;;;;;-2.01;55.87;101849.70;1757741;80;20958;-58
2022/03/22 02:52:55;;;;;;;40.28;22.80;;;;;;;-2.09;55.88;101851.55;1758693;80;21056;-58
2022/03/22 02:55:21;;;;;;;35.45;20.97;;;;;;;-2.14;56.03;101851.77;1761344;80;21132;-58
2022/03/22 02:57:49;;;;;;;41.10;22.53;;;;;;;-2.20;56.06;101842.58;1757118;81;21487;-59
2022/03/22 03:00:17;;;;;;;39.92;23.42;;;;;;;-2.23;56.16;101852.70;1788575;79;21199;-58
2022/03/22 03:02:51;;;;;;;33.38;20.45;;;;;;;-2.25;56.23;101850.06;1772990;79;20997;-58
2022/03/22 03:05:19;;;;;;;38.78;22.27;;;;;;;-2.29;56.36;101852.06;1774694;80;20973;-57
2022/03/22 03:07:45;;;;;;;;;;;;;;;-2.28;56.41;101854.20;1771606;80;21057;-57
2022/03/22 03:10:13;;;;;;;34.98;21.02;;;;;;;-2.26;56.61;101857.70;1757372;80;20167;-57
2022/03/22 03:12:41;;;;;;;34.45;20.52;;;;;;;-2.19;56.61;101857.11;1754271;80;21062;-57
2022/03/22 03:15:10;;;;;;;35.08;20.30;;;;;;;-2.16;56.59;101854.66;1757578;80;20978;-57
2022/03/22 03:17:38;;;;;;;37.90;22.95;;;;;;;-2.14;56.61;101856.02;1740335;80;20935;-57
2022/03/22 03:20:08;;;;;;;38.48;21.95;;;;;;;-2.14;56.62;101851.77;1767678;79;21011;-57
2022/03/22 03:22:35;;;;;;;33.88;20.50;;;;;;;-2.12;56.62;101852.71;1774059;80;20958;-57
2022/03/22 03:25:03;;;;;;;40.45;21.95;;;;;;;-2.15;56.68;101853.87;1776723;80;21472;-57
2022/03/22 03:27:29;;;;;;;34.78;20.82;;;;;;;-2.20;56.73;101845.14;1769910;80;21005;-57
2022/03/22 03:29:56;;;;;;;32.35;20.00;;;;;;;-2.27;56.79;101845.70;1771505;80;21665;-57
2022/03/22 03:32:22;;;;;;;33.13;21.60;;;;;;;-2.33;56.80;101848.89;1766303;79;21285;-58
2022/03/22 03:34:49;;;;;;;36.47;22.07;;;;;;;-2.38;56.91;101854.64;1783588;80;20989;-57
2022/03/22 03:37:16;;;;;;;39.93;20.83;;;;;;;-2.42;56.95;101846.39;1784516;80;21102;-57
2022/03/22 03:39:44;;;;;;;48.05;23.45;;;;;;;-2.47;57.01;101852.19;1762301;80;25736;-57
2022/03/22 03:42:11;;;;;;;39.60;22.42;;;;;;;-2.51;57.08;101854.16;1765496;80;21025;-57
2022/03/22 03:47:25;;;;;;;32.15;21.45;;;;;;;-2.57;57.14;101852.65;1768976;80;21095;-57
2022/03/22 03:49:58;;;;;;;37.17;22.50;;;;;;;-2.57;57.33;101847.53;1762014;80;21808;-56
2022/03/22 03:52:29;;;;;;;44.83;23.07;;;;;;;-2.52;57.41;101853.72;1776014;80;20922;-57
2022/03/22 03:54:57;;;;;;;44.77;22.87;;;;;;;-2.48;57.50;101852.14;1770492;79;21017;-57
2022/03/22 03:57:25;;;;;;;43.38;22.15;;;;;;;-2.44;57.58;101849.29;1768758;80;21629;-57
2022/03/22 03:59:54;;;;;;;39.95;21.15;;;;;;;-2.42;57.59;101853.66;1776969;79;20989;-57
2022/03/22 04:02:21;;;;;;;36.80;20.85;;;;;;;-2.37;57.70;101843.61;1772269;79;21042;-57
2022/03/22 04:04:51;;;;;;;38.63;21.37;;;;;;;-2.33;57.70;101851.45;1783407;80;20942;-57
2022/03/22 04:07:18;;;;;;;39.00;21.48;;;;;;;-2.31;57.67;101851.53;1777147;80;20950;-57
2022/03/22 04:09:45;;;;;;;39.42;20.10;;;;;;;-2.32;57.65;101852.35;1759797;80;20958;-57
2022/03/22 04:12:15;;;;;;;31.30;20.17;;;;;;;-2.35;57.70;101854.37;1770356;80;20993;-57
2022/03/22 04:14:41;;;;;;;38.23;21.12;;;;;;;-2.38;57.74;101847.87;1769600;80;20994;-57
2022/03/22 04:17:08;;;;;;;34.88;19.65;;;;;;;-2.38;57.86;101844.41;1772843;80;21048;-57
2022/03/22 04:19:36;;;;;;;37.23;20.93;;;;;;;-2.34;57.91;101846.30;1783937;80;20962;-57
2022/03/22 04:22:06;;;;;;;37.45;21.17;;;;;;;-2.31;57.98;101849.84;1776310;80;20966;-57
2022/03/22 04:24:34;;;;;;;48.95;22.80;;;;;;;-2.29;57.97;101849.91;1765165;80;21588;-57
2022/03/22 04:32:43;;;;;;;39.75;23.42;;;;;;;-2.29;58.16;101840.95;1773223;80;20982;-58
2022/03/22 04:35:17;;;;;;;48.13;24.72;;;;;;;-2.20;58.26;101847.70;1742410;81;20986;-58
2022/03/22 04:37:45;;;;;;;43.65;23.73;;;;;;;-2.22;58.16;101835.66;1738723;81;20982;-58
2022/03/22 04:40:14;;;;;;;43.70;25.68;;;;;;;-2.23;58.18;101839.91;1744216;80;21126;-58
2022/03/22 04:42:42;;;;;;;44.23;24.70;;;;;;;-2.22;58.31;101839.08;1760146;80;20942;-59
2022/03/22 04:45:10;;;;;;;56.02;26.73;;;;;;;-2.23;58.32;101842.47;1744749;80;21101;-58
2022/03/22 04:47:37;;;;;;;51.77;27.37;;;;;;;-2.25;58.36;101841.52;1774408;80;20986;-58
2022/03/22 04:50:07;;;;;;;56.25;27.75;;;;;;;-2.27;58.30;101838.02;1745870;80;21036;-58
2022/03/22 04:58:05;;;;;;;47.15;27.58;;;;;;;-2.24;58.53;101844.57;1737154;80;21609;-59
2022/03/22 05:00:35;;;;;;;57.37;27.77;;;;;;;-2.06;58.72;101842.70;1762216;80;21037;-59
2022/03/22 05:03:08;;;;;;;59.38;28.07;;;;;;;-1.74;58.84;101841.73;1740124;81;21076;-59
2022/03/22 05:08:19;;;;;;;53.30;28.15;;;;;;;-0.91;58.70;101836.97;1757582;79;20930;-58
2022/03/22 05:10:45;;;;;;;51.08;29.32;;;;;;;-0.50;58.51;101842.58;1751792;79;20985;-59
2022/03/22 05:13:12;;;;;;;72.42;31.30;;;;;;;-0.17;58.38;101844.02;1757334;80;21511;-59
2022/03/22 05:15:38;;;;;;;62.33;30.40;;;;;;;0.20;58.36;101838.72;1723064;81;21285;-59
2022/03/22 05:18:05;;;;;;;65.10;30.75;;;;;;;0.66;58.51;101840.86;1748730;79;21520;-59
2022/03/22 05:20:32;;;;;;;66.87;31.03;;;;;;;1.26;58.47;101836.38;1759562;79;20981;-59
2022/03/22 05:22:59;;;;;;;66.05;30.20;;;;;;;1.81;58.21;101832.53;1748970;79;21056;-59
2022/03/22 05:25:31;;;;;;;41.83;24.05;;;;;;;2.31;58.03;101826.73;1749970;79;21499;-59
2022/03/22 05:28:02;;;;;;;53.30;26.17;;;;;;;2.77;57.83;101835.34;1758839;80;21032;-60
2022/03/22 05:30:29;;;;;;;49.38;26.77;;;;;;;3.17;57.70;101833.49;1764761;80;21084;-59
2022/03/22 05:32:56;;;;;;;37.28;24.60;;;;;;;3.56;57.55;101833.27;1753827;79;21560;-57
2022/03/22 05:35:23;;;;;;;41.45;23.92;;;;;;;3.90;57.48;101813.08;1768382;80;21376;-58
2022/03/22 05:37:51;;;;;;;42.70;23.42;;;;;;;4.39;57.35;101826.61;1776801;80;20954;-58
2022/03/22 05:40:18;;;;;;;34.18;20.52;;;;;;;4.78;57.18;101820.14;1771219;80;21530;-59
2022/03/22 05:42:45;;;;;;;35.17;20.50;;;;;;;5.13;57.13;101823.94;1775315;79;21110;-60
2022/03/22 05:45:16;;;;;;;42.45;20.50;;;;;;;5.60;57.30;101826.03;1779972;79;20990;-59
2022/03/22 05:47:43;;;;;;;34.18;22.62;;;;;;;6.22;57.32;101823.81;1771306;80;22137;-59
2022/03/22 05:50:11;;;;;;;43.68;23.00;;;;;;;6.71;57.02;101822.66;1781424;80;22395;-59
2022/03/22 05:52:49;;;;;;;40.08;22.42;;;;;;;7.04;56.73;101824.88;1781770;80;21122;-60
2022/03/22 05:55:16;;;;;;;36.35;24.20;;;;;;;7.35;56.64;101822.72;1761357;80;21064;-59
2022/03/22 05:57:43;;;;;;;43.87;24.37;;;;;;;7.84;56.59;101829.16;1780329;79;28329;-60
2022/03/22 06:00:46;;;;;;;34.25;23.50;;;;;;;8.46;56.58;101818.56;1873478;74;22122;-59
2022/03/22 06:03:15;;;;;;;31.75;21.80;;;;;;;8.59;56.32;101815.00;1806345;77;20901;-59
2022/03/22 06:05:42;;;;;;;33.80;23.42;;;;;;;8.85;56.15;101813.97;1804885;77;21126;-60
2022/03/22 06:08:09;;;;;;;;;;;;;;;8.97;55.84;101816.51;1816259;77;20988;-60
2022/03/22 06:10:37;;;;;;;33.88;23.65;;;;;;;9.21;55.75;101814.58;1812734;77;20204;-60
2022/03/22 06:13:04;;;;;;;40.43;23.10;;;;;;;9.39;56.07;101811.83;1815851;77;20999;-60
2022/03/22 06:15:34;;;;;;;41.08;25.12;;;;;;;9.75;56.00;101817.57;1822137;77;21053;-59
2022/03/22 06:18:06;;;;;;;37.83;23.50;;;;;;;10.03;55.75;101818.98;1819861;77;21536;-61
2022/03/22 06:20:39;;;;;;;43.15;24.52;;;;;;;10.35;55.86;101814.28;1818408;77;21944;-61
2022/03/22 06:23:12;;;;;;;44.45;25.08;;;;;;;10.73;55.57;101805.94;1825816;77;21027;-64
2022/03/22 06:26:04;;;;;;;51.08;26.42;;;;;;;10.94;55.41;101810.81;1808476;77;21600;-61
2022/03/22 06:28:32;;;;;;;83.27;25.40;;;;;;;11.33;55.46;101808.44;1816652;77;21271;-60
2022/03/22 06:30:59;;;;;;;64.77;27.22;;;;;;;11.51;55.24;101803.77;1814224;78;22252;-61
2022/03/22 06:33:25;;;;;;;54.38;26.10;;;;;;;11.74;54.85;101812.08;1824172;77;21062;-61
2022/03/22 06:35:53;;;;;;;65.05;27.40;;;;;;;11.75;54.51;101809.87;1804932;78;21007;-61
2022/03/22 06:38:19;;;;;;;61.65;27.15;;;;;;;11.67;54.37;101810.45;1813097;77;21026;-61
2022/03/22 06:40:49;;;;;;;83.42;28.83;;;;;;;11.60;54.24;101814.09;1816756;78;21031;-61
2022/03/22 06:43:30;;;;;;;47.88;26.37;;;;;;;11.67;54.04;101807.84;1819429;77;22724;-60
2022/03/22 06:45:57;;;;;;;53.00;27.77;;;;;;;11.71;53.91;101806.91;1777169;78;21546;-60
2022/03/22 06:48:23;;;;;;;51.25;25.23;;;;;;;11.94;53.83;101805.63;1776973;79;21126;-60
2022/03/22 06:50:51;;;;;;;47.15;24.85;;;;;;;12.21;53.66;101805.08;1783120;79;21002;-60
2022/03/22 06:53:19;;;;;;;76.07;28.07;;;;;;;12.46;53.66;101805.84;1784652;80;20950;-60
2022/03/22 06:55:46;;;;;;;44.23;25.62;;;;;;;12.54;53.26;101804.77;1781994;80;21492;-60
2022/03/22 06:58:14;;;;;;;53.73;25.57;;;;;;;12.67;53.04;101798.82;1712339;82;21013;-60
2022/03/22 07:00:41;;;;;;;40.20;26.07;;;;;;;12.90;52.82;101802.67;1732823;81;21114;-60
2022/03/22 07:03:10;;;;;;;48.68;25.08;;;;;;;13.00;52.57;101806.80;1743940;81;21186;-61
2022/03/22 07:05:37;;;;;;;71.62;24.95;;;;;;;13.17;52.83;101802.00;1725734;82;21530;-60
2022/03/22 07:08:04;;;;;;;42.60;22.25;;;;;;;13.42;52.31;101796.17;1731837;82;21072;-61
2022/03/22 07:10:34;;;;;;;32.70;21.00;;;;;;;13.62;52.15;101803.05;1734731;82;21565;-60
2022/03/22 07:13:05;;;;;;;25.52;20.15;;;;;;;13.82;52.26;101801.66;1729086;81;21199;-61
2022/03/22 07:15:36;;;;;;;34.15;22.77;;;;;;;13.79;51.64;101803.05;1731751;81;21056;-60
2022/03/22 07:18:07;;;;;;;42.10;21.57;;;;;;;13.48;51.71;101801.25;1734487;81;21085;-59
2022/03/22 07:20:35;;;;;;;33.18;18.07;;;;;;;13.34;51.61;101808.62;1725272;82;21082;-60
2022/03/22 07:23:03;;;;;;;25.88;19.32;;;;;;;13.19;50.93;101802.83;1731627;82;21016;-60
2022/03/22 07:25:29;;;;;;;31.52;19.12;;;;;;;12.87;51.10;101797.50;1731536;81;21288;-60
2022/03/22 07:27:57;;;;;;;28.38;17.85;;;;;;;12.79;51.00;101804.68;1723015;82;21052;-59
2022/03/22 07:30:24;;;;;;;27.70;18.07;;;;;;;12.71;50.86;101804.39;1731435;81;21072;-59
2022/03/22 07:32:50;;;;;;;24.95;17.25;;;;;;;12.72;50.68;101807.45;1744309;81;21539;-59
2022/03/22 07:35:20;;;;;;;24.32;17.48;;;;;;;12.68;50.23;101810.16;1734638;81;21138;-60
2022/03/22 07:37:48;;;;;;;23.85;16.90;;;;;;;12.58;50.28;101804.28;1717139;83;21358;-59
2022/03/22 07:40:18;;;;;;;26.23;16.97;;;;;;;12.60;50.04;101807.70;1739827;81;21017;-59
2022/03/22 07:42:45;;;;;;;23.32;16.40;;;;;;;12.49;49.56;101808.39;1740792;81;20903;-59
2022/03/22 07:45:12;;;;;;;40.58;17.77;;;;;;;12.34;49.33;101808.28;1697802;83;21004;-59
2022/03/22 07:47:41;;;;;;;25.60;16.20;;;;;;;12.31;49.26;101806.59;1715239;82;21005;-60
2022/03/22 07:53:07;;;;;;;30.23;14.63;;;;;;;12.39;48.94;101813.44;1748711;80;28368;-60
2022/03/22 07:56:08;;;;;;;;;;;;;;;;;;;;;
2022/03/22 07:58:32;;;;;;;92.85;19.60;;;;;;;12.43;48.66;101812.47;1734075;82;21026;-59
2022/03/22 08:00:59;;;;;;;30.95;14.35;;;;;;;12.56;48.61;101807.38;1733704;81;21001;-58
2022/03/22 08:03:26;;;;;;;25.08;14.83;;;;;;;12.62;48.00;101808.54;1731949;82;21590;-59
2022/03/22 08:05:53;;;;;;;;;;;;;;;12.61;47.91;101809.45;1742338;81;20998;-59
2022/03/22 08:08:21;;;;;;;17.10;13.30;;;;;;;12.61;47.46;101812.08;1740996;82;20142;-59
2022/03/22 08:10:48;;;;;;;33.08;15.25;;;;;;;12.63;47.55;101806.36;1741564;80;20950;-62
2022/03/22 08:13:15;;;;;;;27.48;12.73;;;;;;;12.72;47.72;101804.83;1741500;81;21053;-60
2022/03/22 08:15:47;;;;;;;35.10;13.75;;;;;;;12.79;47.21;101807.30;1739008;82;21732;-60
2022/03/22 08:18:16;;;;;;;48.25;15.23;;;;;;;12.81;46.98;101808.13;1739621;82;20983;-63
2022/03/22 08:20:43;;;;;;;25.70;12.33;;;;;;;12.89;47.12;101810.98;1738910;81;21037;-59
2022/03/22 08:23:10;;;;;;;23.07;13.08;;;;;;;13.02;46.65;101807.61;1737107;82;21009;-60
2022/03/22 08:25:40;;;;;;;16.27;12.07;;;;;;;13.05;46.31;101802.73;1744459;82;21595;-60
2022/03/22 08:28:11;;;;;;;15.28;11.55;;;;;;;13.07;46.19;101797.88;1747580;81;21164;-60
2022/03/22 08:30:40;;;;;;;47.90;16.25;;;;;;;13.11;46.37;101804.78;1743410;81;21582;-61
2022/03/22 08:33:09;;;;;;;21.33;12.05;;;;;;;13.32;46.26;101799.92;1747971;81;21556;-60
2022/03/22 08:35:45;;;;;;;34.05;12.70;;;;;;;13.36;45.56;101802.86;1749133;81;20986;-61
2022/03/22 08:38:11;;;;;;;14.40;10.65;;;;;;;13.25;45.51;101802.23;1745472;82;21499;-60
2022/03/22 08:40:40;;;;;;;21.77;11.33;;;;;;;13.22;45.29;101791.41;1745336;82;21207;-61
2022/03/22 08:43:09;;;;;;;21.50;11.28;;;;;;;13.27;44.86;101796.55;1736966;81;20948;-61
2022/03/22 08:45:41;;;;;;;17.35;10.82;;;;;;;13.26;44.89;101802.70;1740250;81;20950;-60
2022/03/22 08:48:10;;;;;;;35.13;12.80;;;;;;;13.27;44.73;101799.17;1737983;81;21007;-63
2022/03/22 08:50:42;;;;;;;14.47;10.00;;;;;;;13.33;44.63;101801.62;1740522;82;20959;-60
2022/03/22 08:53:09;;;;;;;19.05;9.55;;;;;;;13.37;44.38;101805.92;1747910;81;21083;-61
2022/03/22 08:55:36;;;;;;;14.58;8.63;;;;;;;13.35;44.10;101799.84;1743998;81;21058;-60
2022/03/22 08:58:06;;;;;;;23.65;9.73;;;;;;;13.41;43.85;101798.36;1740672;81;21162;-60
2022/03/22 09:00:38;;;;;;;14.03;9.58;;;;;;;13.39;43.73;101796.25;1738798;81;21599;-60
2022/03/22 09:03:10;;;;;;;12.43;9.00;;;;;;;13.40;43.46;101790.09;1740717;82;20990;-60
2022/03/22 09:08:26;;;;;;;12.30;8.63;;;;;;;13.60;43.57;101794.35;1745155;81;21015;-60
2022/03/22 09:10:54;;;;;;;21.87;9.33;;;;;;;13.71;43.22;101791.90;1748393;81;21512;-60
2022/03/22 09:13:23;;;;;;;17.37;8.80;;;;;;;13.76;43.02;101793.95;1746797;82;21566;-60
2022/03/22 09:15:51;;;;;;;16.32;9.43;;;;;;;13.84;42.84;101791.98;1743227;81;21010;-61
2022/03/22 09:18:18;;;;;;;11.33;9.08;;;;;;;13.87;42.65;101795.83;1741815;82;21481;-60
2022/03/22 09:20:46;;;;;;;11.85;8.75;;;;;;;13.85;42.49;101789.75;1747678;81;21047;-62
2022/03/22 09:23:14;;;;;;;13.62;9.18;;;;;;;13.88;42.39;101788.34;1747047;82;21057;-61
2022/03/22 09:25:45;;;;;;;12.80;9.45;;;;;;;13.91;42.26;101786.95;1745316;81;21080;-61
2022/03/22 09:28:13;;;;;;;12.58;9.53;;;;;;;13.88;42.01;101783.95;1742771;81;20998;-61
2022/03/22 09:30:40;;;;;;;15.08;9.93;;;;;;;13.85;41.99;101779.25;1744143;82;21104;-61
2022/03/22 09:33:08;;;;;;;13.78;9.58;;;;;;;13.91;41.81;101782.16;1735206;81;21021;-61
2022/03/22 09:35:35;;;;;;;12.70;9.93;;;;;;;13.92;41.81;101778.19;1730390;81;21059;-61
2022/03/22 09:38:03;;;;;;;15.85;10.38;;;;;;;13.95;41.62;101778.09;1740922;81;21061;-60
2022/03/22 09:40:38;;;;;;;20.43;10.53;;;;;;;13.96;41.33;101775.86;1739957;81;21012;-61
2022/03/22 09:43:07;;;;;;;15.23;10.48;;;;;;;13.99;41.20;101777.09;1748061;82;21613;-60
2022/03/22 09:45:34;;;;;;;14.75;10.58;;;;;;;14.01;41.13;101768.72;1745450;81;21049;-60
2022/03/22 09:48:01;;;;;;;13.50;10.28;;;;;;;14.07;41.11;101777.73;1734317;81;21089;-61
2022/03/22 09:53:16;;;;;;;12.98;9.38;;;;;;;14.16;40.71;101762.60;1747415;81;21065;-61
2022/03/22 09:55:43;;;;;;;16.40;8.83;;;;;;;14.12;40.54;101763.61;1738601;81;21090;-59
2022/03/22 09:58:10;;;;;;;13.10;9.08;;;;;;;14.08;40.47;101762.36;1739122;81;20960;-59
2022/03/22 10:00:38;;;;;;;;;;;;;;;14.10;40.50;101767.12;1738912;81;21064;-59
2022/03/22 10:03:04;;;;;;;;;;;;;;;14.14;39.85;101761.78;1744053;81;20165;-59
2022/03/22 10:05:31;;;;;;;15.60;9.28;;;;;;;14.13;39.61;101760.07;1744461;82;20159;-59
2022/03/22 10:08:00;;;;;;;27.82;10.20;;;;;;;14.10;39.92;101760.56;1740236;81;21603;-59
2022/03/22 10:10:28;;;;;;;20.82;9.98;;;;;;;14.13;39.67;101760.07;1746305;82;21481;-60
2022/03/22 10:12:59;;;;;;;28.73;10.72;;;;;;;14.13;39.77;101757.44;1740284;81;21550;-61
2022/03/22 10:15:35;;;;;;;15.18;9.38;;;;;;;14.19;39.77;101749.38;1744729;81;20991;-60
2022/03/22 10:18:11;;;;;;;14.53;9.33;;;;;;;14.24;39.62;101747.47;1743347;81;21760;-60
2022/03/22 10:20:41;;;;;;;42.45;13.65;;;;;;;14.31;39.32;101745.05;1745707;82;21422;-60
2022/03/22 10:23:13;;;;;;;16.15;9.78;;;;;;;14.32;39.25;101740.22;1740328;81;21002;-59
2022/03/22 10:25:41;;;;;;;14.63;9.80;;;;;;;14.33;39.02;101737.53;1737897;80;22290;-59
2022/03/22 10:28:09;;;;;;;27.27;9.90;;;;;;;14.33;39.02;101736.67;1727332;82;20982;-58
2022/03/22 10:30:37;;;;;;;14.95;8.70;;;;;;;14.36;39.01;101730.00;1740725;81;20954;-59
2022/03/22 10:33:05;;;;;;;12.55;9.50;;;;;;;14.41;38.91;101729.41;1731154;81;21040;-62
2022/03/22 10:35:36;;;;;;;31.57;10.93;;;;;;;14.43;38.82;101732.86;1737667;81;20949;-58
2022/03/22 10:38:06;;;;;;;14.35;8.88;;;;;;;14.46;38.68;101727.51;1744419;81;20892;-58
2022/03/22 10:40:40;;;;;;;12.58;9.55;;;;;;;14.52;38.52;101726.02;1746507;82;20899;-58
2022/03/22 10:43:09;;;;;;;12.60;8.38;;;;;;;14.60;38.50;101728.87;1731997;81;20914;-58
2022/03/22 10:45:50;;;;;;;38.50;8.30;;;;;;;14.64;38.16;101722.59;1740084;81;21251;-58
2022/03/22 10:48:26;;;;;;;26.57;9.60;;;;;;;14.69;38.15;101718.05;1734062;81;20876;-58
2022/03/22 10:50:55;;;;;;;16.35;9.28;;;;;;;14.73;38.04;101710.03;1751900;81;20915;-58
2022/03/22 10:53:26;;;;;;;13.90;9.23;;;;;;;14.73;37.88;101714.41;1743564;80;20910;-59
2022/03/22 10:55:54;;;;;;;18.00;10.25;;;;;;;14.75;37.58;101708.64;1698434;82;20973;-58
2022/03/22 10:58:27;;;;;;;20.82;9.93;;;;;;;14.74;37.63;101710.88;1712009;81;21058;-58
2022/03/22 11:00:55;;;;;;;14.45;9.30;;;;;;;14.74;37.51;101710.88;1760719;80;21468;-58
2022/03/22 11:03:24;;;;;;;17.32;9.60;;;;;;;14.72;37.50;101706.12;1750745;81;20918;-58
2022/03/22 11:05:54;;;;;;;16.52;9.45;;;;;;;14.74;37.18;101708.25;1705923;83;20949;-59
2022/03/22 11:08:25;;;;;;;31.10;10.65;;;;;;;14.71;37.03;101701.33;1736634;81;20950;-59
2022/03/22 11:10:54;;;;;;;18.50;10.55;;;;;;;14.70;37.09;101698.73;1754183;81;21032;-59
2022/03/22 11:13:24;;;;;;;11.93;9.20;;;;;;;14.74;37.09;101695.11;1755879;81;20918;-59
2022/03/22 11:15:55;;;;;;;40.75;11.95;;;;;;;14.84;37.10;101691.23;1752899;80;20993;-58
2022/03/22 11:18:23;;;;;;;14.28;10.43;;;;;;;14.88;36.93;101692.88;1748957;81;20938;-59
2022/03/22 11:20:59;;;;;;;18.30;10.85;;;;;;;14.90;36.68;101688.42;1750520;81;21894;-59
2022/03/22 11:23:29;;;;;;;34.90;12.27;;;;;;;14.93;36.66;101685.69;1719934;81;21058;-59
2022/03/22 11:26:11;;;;;;;40.80;11.65;;;;;;;15.02;36.67;101678.39;1762457;80;20994;-59
2022/03/22 11:28:41;;;;;;;43.33;13.65;;;;;;;15.12;36.67;101674.51;1762177;80;20942;-58
2022/03/22 11:31:10;;;;;;;19.52;10.93;;;;;;;15.16;36.54;101672.19;1753606;81;21448;-59
2022/03/22 11:36:44;;;;;;;58.58;13.95;;;;;;;15.06;36.08;101668.16;1748541;80;21077;-61
2022/03/22 11:42:15;;;;;;;15.13;11.00;;;;;;;15.06;36.12;101664.20;1715157;82;21437;-61
2022/03/22 11:44:39;;;;;;;19.52;10.23;;;;;;;15.12;35.94;101657.41;1749780;80;20945;-59
2022/03/22 11:47:16;;;;;;;28.67;12.63;;;;;;;15.14;35.84;101654.28;1755751;80;20959;-59
2022/03/22 11:50:01;;;;;;;29.37;11.28;;;;;;;15.18;35.67;101658.53;1722840;81;21107;-59
2022/03/22 11:52:41;;;;;;;15.60;10.08;;;;;;;15.19;35.67;101649.25;1731044;81;20962;-59
2022/03/22 11:55:21;;;;;;;41.53;12.68;;;;;;;15.25;35.59;101646.86;1701585;83;20990;-60
2022/03/22 11:57:59;;;;;;;41.92;13.68;;;;;;;15.28;35.49;101636.22;1747765;81;20918;-59
2022/03/22 12:00:47;;;;;;;77.53;17.92;;;;;;;15.33;35.28;101636.91;1711121;83;20891;-59